createdAt,value
2023-02-01T00:02:13.494Z,6.58
2023-02-01T00:04:39.974Z,7.00
2023-02-01T00:07:07.916Z,6.82
2023-02-01T00:09:34.544Z,6.61
2023-02-01T00:12:02.892Z,6.47
2023-02-01T00:14:29.729Z,6.41
2023-02-01T00:16:56.392Z,6.24
2023-02-01T00:19:22.875Z,6.37
2023-02-01T00:21:49.327Z,6.53
2023-02-01T00:24:15.825Z,6.86
2023-02-01T00:26:44.586Z,6.75
2023-02-01T00:29:16.723Z,6.82
2023-02-01T00:31:43.796Z,6.59
2023-02-01T00:34:13.526Z,6.92
2023-02-01T00:36:40.142Z,6.43
2023-02-01T00:39:06.619Z,6.72
2023-02-01T00:41:33.130Z,6.67
2023-02-01T00:43:59.606Z,6.61
2023-02-01T00:46:26.380Z,6.80
2023-02-01T00:48:52.940Z,6.68
2023-02-01T00:51:22.105Z,6.76
2023-02-01T00:53:48.749Z,6.93
2023-02-01T00:56:15.215Z,6.56
2023-02-01T00:58:45.251Z,6.89
2023-02-01T01:01:24.696Z,6.94
2023-02-01T01:03:57.152Z,6.88
2023-02-01T01:06:26.295Z,6.72
2023-02-01T01:08:54.343Z,6.57
2023-02-01T01:11:24.273Z,6.60
2023-02-01T01:13:52.028Z,6.79
2023-02-01T01:16:18.650Z,6.90
2023-02-01T01:18:45.168Z,7.04
2023-02-01T01:21:14.091Z,7.35
2023-02-01T01:23:40.796Z,6.77
2023-02-01T01:26:08.829Z,6.72
2023-02-01T01:28:35.529Z,6.50
2023-02-01T01:31:02.189Z,6.77
2023-02-01T01:33:28.733Z,6.76
2023-02-01T01:35:55.219Z,7.47
2023-02-01T01:38:21.643Z,6.87
2023-02-01T01:40:50.786Z,7.10
2023-02-01T01:43:20.669Z,6.60
2023-02-01T01:45:47.264Z,7.00
2023-02-01T01:48:29.442Z,6.84
2023-02-01T01:50:58.843Z,7.49
2023-02-01T01:53:28.431Z,6.94
2023-02-01T01:55:55.805Z,6.86
2023-02-01T01:58:26.453Z,7.00
2023-02-01T02:00:54.627Z,7.05
2023-02-01T02:03:35.072Z,6.74
2023-02-01T02:06:03.321Z,6.92
2023-02-01T02:08:29.903Z,7.50
2023-02-01T02:11:02.937Z,6.98
2023-02-01T02:13:36.626Z,6.98
2023-02-01T02:16:45.263Z,7.15
2023-02-01T02:19:30.535Z,6.79
2023-02-01T02:22:29.148Z,6.79
2023-02-01T02:25:13.503Z,7.00
2023-02-01T02:27:57.030Z,7.11
2023-02-01T02:30:35.765Z,7.15
2023-02-01T02:33:40.027Z,6.70
2023-02-01T02:36:21.835Z,7.30
2023-02-01T02:39:11.476Z,7.14
2023-02-01T02:42:11.022Z,7.05
2023-02-01T02:45:21.296Z,7.18
2023-02-01T02:48:07.697Z,6.99
2023-02-01T02:50:57.147Z,6.91
2023-02-01T02:54:17.437Z,7.75
2023-02-01T02:57:02.690Z,7.60
2023-02-01T02:59:48.249Z,7.16
2023-02-01T03:02:34.400Z,7.18
2023-02-01T03:05:01.172Z,7.36
2023-02-01T03:07:48.236Z,7.03
2023-02-01T03:10:22.209Z,7.21
2023-02-01T03:12:58.449Z,7.48
2023-02-01T03:15:30.597Z,7.32
2023-02-01T03:17:59.027Z,7.07
2023-02-01T03:20:26.322Z,7.73
2023-02-01T03:22:54.022Z,7.89
2023-02-01T03:25:25.925Z,7.48
2023-02-01T03:27:56.332Z,7.35
2023-02-01T03:30:43.573Z,6.90
2023-02-01T03:33:23.161Z,8.04
2023-02-01T03:36:04.925Z,7.26
2023-02-01T03:38:43.534Z,6.96
2023-02-01T03:41:15.165Z,6.56
2023-02-01T03:43:58.305Z,6.53
2023-02-01T03:46:38.616Z,7.03
2023-02-01T03:49:08.176Z,6.74
2023-02-01T03:51:34.931Z,7.63
2023-02-01T03:54:03.165Z,7.00
2023-02-01T03:56:30.562Z,7.39
2023-02-01T03:59:00.136Z,7.69
2023-02-01T04:01:31.667Z,6.91
2023-02-01T04:03:59.093Z,7.12
2023-02-01T04:06:25.956Z,6.44
2023-02-01T04:08:52.987Z,6.58
2023-02-01T04:11:19.754Z,6.97
2023-02-01T04:13:46.257Z,6.55
2023-02-01T04:16:12.969Z,6.19
2023-02-01T04:18:39.456Z,6.39
2023-02-01T04:21:06.249Z,6.28
2023-02-01T04:23:32.880Z,6.40
2023-02-01T04:26:03.807Z,6.00
2023-02-01T04:28:30.396Z,6.31
2023-02-01T04:30:57.661Z,5.73
2023-02-01T04:33:24.626Z,5.69
2023-02-01T04:35:51.132Z,5.37
2023-02-01T04:38:17.822Z,5.63
2023-02-01T04:40:44.295Z,6.07
2023-02-01T04:43:10.739Z,5.81
2023-02-01T04:45:37.258Z,5.84
2023-02-01T04:48:04.026Z,5.71
2023-02-01T04:50:30.482Z,5.66
2023-02-01T04:52:56.957Z,4.92
2023-02-01T04:55:23.424Z,5.29
2023-02-01T04:57:49.860Z,4.82
2023-02-01T05:00:17.012Z,4.68
2023-02-01T05:02:43.557Z,5.33
2023-02-01T05:05:10.078Z,4.85
2023-02-01T05:07:36.510Z,4.51
2023-02-01T05:10:03.101Z,5.41
2023-02-01T05:12:48.212Z,4.98
2023-02-01T05:15:14.709Z,4.62
2023-02-01T05:17:41.341Z,4.85
2023-02-01T05:20:09.530Z,4.94
2023-02-01T05:22:36.026Z,4.85
2023-02-01T05:25:02.548Z,5.28
2023-02-01T05:27:31.234Z,5.40
2023-02-01T05:29:57.713Z,5.16
2023-02-01T05:32:24.350Z,5.11
2023-02-01T05:34:51.263Z,5.53
2023-02-01T05:37:17.765Z,5.26
2023-02-01T05:39:44.255Z,5.40
2023-02-01T05:42:10.854Z,5.88
2023-02-01T05:44:37.281Z,5.74
2023-02-01T05:47:03.870Z,5.64
2023-02-01T05:49:30.436Z,5.33
2023-02-01T05:51:59.331Z,5.50
2023-02-01T05:54:26.724Z,5.95
2023-02-01T05:56:53.209Z,5.66
2023-02-01T05:59:19.687Z,5.63
2023-02-01T06:01:46.241Z,5.97
2023-02-01T06:04:12.825Z,5.99
2023-02-01T06:06:39.357Z,5.91
2023-02-01T06:09:06.014Z,5.82
2023-02-01T06:11:33.320Z,6.18
2023-02-01T06:14:00.201Z,5.96
2023-02-01T06:16:27.335Z,5.83
2023-02-01T06:18:54.742Z,5.80
2023-02-01T06:21:24.851Z,6.02
2023-02-01T06:23:52.984Z,5.83
2023-02-01T06:26:19.626Z,5.94
2023-02-01T06:28:46.461Z,6.02
2023-02-01T06:31:13.473Z,5.78
2023-02-01T06:33:40.123Z,5.96
2023-02-01T06:36:08.256Z,5.67
2023-02-01T06:38:38.177Z,5.96
2023-02-01T06:41:04.958Z,5.54
2023-02-01T06:43:33.610Z,5.69
2023-02-01T06:46:02.305Z,5.73
2023-02-01T06:48:28.795Z,5.86
2023-02-01T06:50:55.346Z,5.89
2023-02-01T06:53:22.016Z,5.64
2023-02-01T06:55:55.491Z,6.02
2023-02-01T06:58:22.486Z,5.82
2023-02-01T07:00:49.532Z,5.68
2023-02-01T07:03:16.058Z,5.59
2023-02-01T07:05:42.510Z,5.36
2023-02-01T07:08:08.978Z,6.01
2023-02-01T07:10:35.898Z,5.95
2023-02-01T07:13:02.448Z,5.79
2023-02-01T07:15:28.910Z,6.17
2023-02-01T07:17:56.393Z,5.80
2023-02-01T07:20:23.514Z,5.81
2023-02-01T07:22:50.239Z,6.31
2023-02-01T07:25:16.822Z,6.27
2023-02-01T07:27:43.297Z,6.31
2023-02-01T07:30:10.347Z,6.59
2023-02-01T07:32:37.704Z,6.41
2023-02-01T07:35:04.401Z,6.35
2023-02-01T07:37:31.778Z,6.37
2023-02-01T07:39:58.235Z,6.62
2023-02-01T07:42:24.776Z,6.75
2023-02-01T07:44:51.217Z,5.98
2023-02-01T07:47:17.720Z,5.98
2023-02-01T07:49:44.183Z,6.37
2023-02-01T07:52:12.272Z,6.79
2023-02-01T07:54:38.705Z,6.50
2023-02-01T07:57:05.149Z,6.54
2023-02-01T07:59:31.588Z,6.76
2023-02-01T08:01:58.068Z,6.05
2023-02-01T08:04:24.548Z,5.39
2023-02-01T08:06:51.018Z,5.08
2023-02-01T08:09:17.525Z,5.13
2023-02-01T08:11:44.173Z,4.93
2023-02-01T08:14:10.634Z,5.45
2023-02-01T08:16:38.875Z,5.86
2023-02-01T08:19:05.409Z,6.03
2023-02-01T08:21:37.783Z,6.31
2023-02-01T08:24:09.422Z,6.12
2023-02-01T08:26:36.001Z,5.67
2023-02-01T08:29:04.630Z,6.08
2023-02-01T08:31:31.850Z,5.93
2023-02-01T08:34:00.979Z,6.05
2023-02-01T08:36:29.507Z,6.10
2023-02-01T08:38:56.013Z,6.10
2023-02-01T08:41:25.181Z,6.31
2023-02-01T08:43:52.058Z,7.33
2023-02-01T08:46:18.887Z,6.75
2023-02-01T08:48:46.964Z,6.86
2023-02-01T08:51:15.574Z,6.91
2023-02-01T08:53:42.664Z,6.73
2023-02-01T08:56:10.911Z,7.07
2023-02-01T08:58:37.454Z,6.71
2023-02-01T09:01:07.777Z,6.85
2023-02-01T09:03:34.625Z,7.30
2023-02-01T09:06:02.890Z,7.56
2023-02-01T09:08:29.556Z,7.45
2023-02-01T09:11:02.829Z,7.10
2023-02-01T09:13:29.861Z,6.64
2023-02-01T09:15:56.409Z,6.60
2023-02-01T09:18:23.190Z,6.74
2023-02-01T09:20:49.664Z,7.61
2023-02-01T09:23:16.159Z,6.50
2023-02-01T09:25:42.581Z,6.67
2023-02-01T09:28:10.063Z,6.77
2023-02-01T09:30:37.837Z,7.09
2023-02-01T09:33:04.884Z,7.16
2023-02-01T09:35:31.356Z,7.27
2023-02-01T09:37:57.857Z,7.39
2023-02-01T09:40:24.999Z,7.24
2023-02-01T09:43:12.268Z,7.51
2023-02-01T09:45:56.991Z,7.62
2023-02-01T09:48:30.948Z,7.92
2023-02-01T09:50:58.871Z,7.34
2023-02-01T09:53:37.705Z,7.66
2023-02-01T09:56:28.220Z,7.75
2023-02-01T09:59:25.018Z,7.52
2023-02-01T10:01:51.564Z,7.84
2023-02-01T10:04:18.695Z,8.19
2023-02-01T10:07:07.643Z,7.97
2023-02-01T10:09:50.269Z,8.27
2023-02-01T10:12:43.017Z,7.83
2023-02-01T10:15:41.259Z,7.89
2023-02-01T10:18:21.899Z,7.75
2023-02-01T10:21:02.763Z,8.21
2023-02-01T10:23:44.480Z,7.75
2023-02-01T10:26:21.581Z,8.30
2023-02-01T10:28:53.894Z,7.96
2023-02-01T10:31:22.462Z,8.19
2023-02-01T10:33:57.111Z,8.21
2023-02-01T10:36:31.450Z,8.36
2023-02-01T10:39:01.218Z,7.52
2023-02-01T10:41:40.105Z,7.48
2023-02-01T10:44:18.331Z,7.03
2023-02-01T10:46:44.881Z,7.60
2023-02-01T10:49:33.585Z,6.96
2023-02-01T10:52:16.549Z,7.32
2023-02-01T10:54:43.184Z,6.95
2023-02-01T10:57:32.822Z,7.09
2023-02-01T11:00:03.525Z,7.26
2023-02-01T11:02:33.582Z,7.90
2023-02-01T11:05:05.260Z,8.04
2023-02-01T11:07:32.273Z,8.08
2023-02-01T11:09:59.120Z,7.48
2023-02-01T11:12:38.017Z,7.41
2023-02-01T11:15:24.266Z,7.38
2023-02-01T11:17:59.852Z,7.53
2023-02-01T11:20:39.973Z,7.47
2023-02-01T11:23:06.975Z,7.26
2023-02-01T11:25:35.903Z,7.43
2023-02-01T11:28:02.690Z,7.77
2023-02-01T11:30:41.791Z,8.17
2023-02-01T11:33:14.820Z,7.56
2023-02-01T11:35:42.707Z,7.95
2023-02-01T11:38:20.665Z,7.76
2023-02-01T11:40:47.153Z,7.32
2023-02-01T11:43:24.801Z,7.57
2023-02-01T11:46:00.512Z,7.37
2023-02-01T11:48:29.952Z,7.51
2023-02-01T11:51:11.782Z,7.71
2023-02-01T11:53:41.514Z,7.42
2023-02-01T11:56:14.320Z,7.86
2023-02-01T11:58:57.398Z,7.57
2023-02-01T12:01:35.307Z,7.48
2023-02-01T12:04:09.376Z,6.77
2023-02-01T12:06:39.568Z,7.38
2023-02-01T12:09:06.008Z,7.38
2023-02-01T12:11:42.949Z,7.25
2023-02-01T12:14:30.997Z,6.65
2023-02-01T12:17:35.012Z,6.87
2023-02-01T12:20:26.308Z,6.36
2023-02-01T12:23:17.930Z,6.77
2023-02-01T12:26:08.914Z,6.70
2023-02-01T12:28:54.342Z,6.46
2023-02-01T12:31:36.242Z,6.57
2023-02-01T12:34:17.022Z,6.85
2023-02-01T12:37:06.493Z,6.39
2023-02-01T12:39:41.004Z,6.48
2023-02-01T12:42:44.895Z,6.70
2023-02-01T12:45:11.303Z,6.88
2023-02-01T12:47:45.302Z,6.54
2023-02-01T12:50:26.605Z,6.90
2023-02-01T12:52:55.236Z,6.45
2023-02-01T12:55:25.142Z,6.65
2023-02-01T12:57:56.663Z,6.44
2023-02-01T13:00:36.652Z,6.63
2023-02-01T13:03:08.925Z,6.52
2023-02-01T13:05:45.730Z,6.59
2023-02-01T13:08:22.627Z,7.07
2023-02-01T13:10:55.671Z,5.95
2023-02-01T13:14:01.307Z,6.20
2023-02-01T13:16:31.799Z,5.98
2023-02-01T13:19:19.148Z,6.18
2023-02-01T13:21:52.829Z,5.78
2023-02-01T13:24:43.875Z,5.72
2023-02-01T13:27:13.310Z,5.78
2023-02-01T13:29:48.925Z,6.20
2023-02-01T13:32:54.318Z,6.08
2023-02-01T13:35:40.169Z,6.44
2023-02-01T13:38:30.711Z,6.11
2023-02-01T13:41:25.560Z,6.80
2023-02-01T13:43:54.655Z,7.13
2023-02-01T13:46:21.283Z,6.60
2023-02-01T13:48:58.345Z,6.24
2023-02-01T13:51:37.951Z,6.44
2023-02-01T13:54:05.917Z,6.37
2023-02-01T13:56:41.574Z,6.68
2023-02-01T13:59:46.031Z,6.61
2023-02-01T14:02:43.593Z,6.55
2023-02-01T14:05:11.528Z,6.18
2023-02-01T14:07:38.021Z,6.40
2023-02-01T14:10:42.296Z,6.46
2023-02-01T14:13:24.856Z,6.36
2023-02-01T14:16:20.962Z,6.47
2023-02-01T14:18:50.151Z,6.16
2023-02-01T14:21:23.700Z,6.46
2023-02-01T14:24:16.517Z,6.22
2023-02-01T14:26:50.990Z,6.53
2023-02-01T14:29:21.392Z,6.45
2023-02-01T14:32:13.694Z,6.22
2023-02-01T14:34:49.587Z,6.46
2023-02-01T14:37:18.798Z,6.42
2023-02-01T14:39:45.277Z,6.50
2023-02-01T14:42:41.291Z,6.15
2023-02-01T14:45:20.197Z,6.23
2023-02-01T14:47:48.766Z,6.64
2023-02-01T14:50:30.546Z,6.60
2023-02-01T14:53:06.923Z,6.99
2023-02-01T14:55:39.405Z,7.03
2023-02-01T14:58:19.949Z,6.82
2023-02-01T15:00:58.255Z,6.98
2023-02-01T15:04:02.282Z,6.56
2023-02-01T15:06:40.650Z,7.13
2023-02-01T15:09:13.359Z,6.60
2023-02-01T15:12:00.997Z,6.63
2023-02-01T15:14:32.481Z,6.77
2023-02-01T15:16:59.013Z,6.68
2023-02-01T15:19:27.896Z,6.78
2023-02-01T15:21:56.971Z,6.88
2023-02-01T15:24:29.151Z,6.83
2023-02-01T15:26:56.742Z,7.02
2023-02-01T15:29:28.813Z,7.07
2023-02-01T15:31:55.673Z,7.86
2023-02-01T15:34:23.477Z,6.89
2023-02-01T15:37:02.360Z,7.19
2023-02-01T15:39:32.469Z,7.15
2023-02-01T15:42:03.058Z,6.96
2023-02-01T15:44:41.331Z,7.28
2023-02-01T15:47:19.532Z,7.32
2023-02-01T15:49:48.568Z,6.86
2023-02-01T15:52:36.530Z,7.16
2023-02-01T15:55:10.028Z,7.44
2023-02-01T15:57:37.981Z,7.23
2023-02-01T16:00:08.660Z,7.38
2023-02-01T16:02:39.646Z,6.98
2023-02-01T16:05:26.418Z,6.99
2023-02-01T16:08:16.160Z,7.36
2023-02-01T16:10:47.527Z,7.23
2023-02-01T16:13:15.376Z,6.74
2023-02-01T16:15:41.858Z,6.80
2023-02-01T16:18:11.728Z,7.37
2023-02-01T16:20:40.506Z,6.87
2023-02-01T16:23:08.035Z,7.10
2023-02-01T16:25:35.265Z,6.89
2023-02-01T16:28:02.056Z,7.13
2023-02-01T16:30:28.633Z,6.93
2023-02-01T16:32:56.261Z,6.83
2023-02-01T16:35:28.292Z,7.22
2023-02-01T16:37:55.035Z,7.10
2023-02-01T16:40:25.096Z,6.92
2023-02-01T16:42:56.150Z,7.27
2023-02-01T16:45:22.957Z,7.25
2023-02-01T16:47:55.508Z,7.35
2023-02-01T16:50:24.460Z,7.32
2023-02-01T16:52:51.848Z,7.43
2023-02-01T16:55:20.686Z,7.26
2023-02-01T16:57:47.384Z,7.36
2023-02-01T17:00:24.114Z,7.31
2023-02-01T17:02:52.246Z,7.58
2023-02-01T17:05:18.746Z,7.22
2023-02-01T17:07:45.231Z,7.60
2023-02-01T17:10:32.595Z,7.40
2023-02-01T17:13:00.734Z,7.43
2023-02-01T17:15:29.407Z,7.15
2023-02-01T17:17:57.675Z,7.26
2023-02-01T17:20:25.709Z,7.69
2023-02-01T17:22:53.078Z,7.45
2023-02-01T17:25:22.518Z,7.24
2023-02-01T17:27:49.870Z,7.72
2023-02-01T17:30:16.817Z,7.65
2023-02-01T17:32:43.586Z,7.55
2023-02-01T17:35:22.570Z,7.31
2023-02-01T17:37:50.054Z,7.27
2023-02-01T17:40:16.828Z,7.38
2023-02-01T17:42:44.557Z,7.17
2023-02-01T17:45:32.968Z,7.58
2023-02-01T17:48:10.711Z,7.41
2023-02-01T17:50:38.537Z,7.26
2023-02-01T17:53:09.315Z,7.03
2023-02-01T17:55:38.536Z,7.41
2023-02-01T17:58:05.105Z,7.11
2023-02-01T18:00:31.597Z,7.04
2023-02-01T18:02:58.135Z,6.94
2023-02-01T18:05:40.641Z,7.04
2023-02-01T18:08:07.891Z,7.19
2023-02-01T18:10:36.827Z,6.87
2023-02-01T18:13:03.959Z,6.84
2023-02-01T18:15:31.786Z,6.75
2023-02-01T18:17:58.340Z,7.15
2023-02-01T18:20:26.337Z,7.00
2023-02-01T18:22:53.528Z,6.91
2023-02-01T18:25:30.230Z,6.72
2023-02-01T18:27:57.456Z,6.88
2023-02-01T18:30:25.879Z,6.44
2023-02-01T18:32:52.356Z,6.64
2023-02-01T18:35:29.623Z,5.96
2023-02-01T18:37:56.688Z,6.38
2023-02-01T18:40:29.258Z,6.53
2023-02-01T18:42:55.889Z,5.94
2023-02-01T18:45:31.848Z,6.32
2023-02-01T18:48:02.212Z,6.40
2023-02-01T18:50:33.173Z,6.27
2023-02-01T18:53:01.455Z,6.09
2023-02-01T18:55:29.164Z,5.98
2023-02-01T18:57:55.726Z,6.00
2023-02-01T19:00:22.862Z,6.14
2023-02-01T19:02:49.836Z,6.46
2023-02-01T19:05:16.777Z,6.06
2023-02-01T19:07:45.151Z,6.32
2023-02-01T19:10:15.238Z,6.11
2023-02-01T19:12:42.006Z,6.15
2023-02-01T19:15:12.903Z,5.95
2023-02-01T19:17:40.817Z,5.92
2023-02-01T19:20:08.419Z,6.06
2023-02-01T19:22:34.880Z,5.83
2023-02-01T19:25:01.422Z,5.86
2023-02-01T19:27:28.339Z,5.70
2023-02-01T19:29:54.812Z,5.87
2023-02-01T19:32:21.871Z,5.90
2023-02-01T19:34:48.368Z,6.17
2023-02-01T19:37:15.166Z,5.82
2023-02-01T19:39:42.123Z,6.16
2023-02-01T19:42:08.731Z,5.88
2023-02-01T19:44:35.514Z,6.12
2023-02-01T19:47:01.996Z,5.99
2023-02-01T19:49:28.480Z,5.71
2023-02-01T19:51:54.949Z,6.00
2023-02-01T19:54:21.619Z,5.99
2023-02-01T19:56:51.214Z,6.00
2023-02-01T19:59:19.087Z,6.29
2023-02-01T20:01:46.700Z,5.98
2023-02-01T20:04:16.818Z,6.27
2023-02-01T20:06:48.910Z,6.53
2023-02-01T20:09:22.339Z,6.20
2023-02-01T20:11:49.694Z,6.50
2023-02-01T20:14:16.788Z,6.28
2023-02-01T20:16:49.898Z,6.65
2023-02-01T20:19:17.107Z,6.52
2023-02-01T20:21:43.811Z,6.40
2023-02-01T20:24:13.687Z,6.44
2023-02-01T20:26:41.520Z,6.31
2023-02-01T20:29:08.189Z,6.60
2023-02-01T20:31:35.276Z,6.47
2023-02-01T20:34:03.387Z,6.76
2023-02-01T20:36:31.384Z,6.51
2023-02-01T20:38:58.606Z,6.41
2023-02-01T20:41:26.183Z,6.40
2023-02-01T20:43:52.925Z,6.46
2023-02-01T20:46:19.762Z,6.15
2023-02-01T20:48:47.916Z,6.37
2023-02-01T20:51:16.176Z,6.39
2023-02-01T20:53:42.885Z,6.49
2023-02-01T20:56:11.096Z,6.53
2023-02-01T20:58:37.534Z,6.19
2023-02-01T21:01:04.303Z,6.75
2023-02-01T21:03:30.856Z,6.59
2023-02-01T21:05:58.769Z,6.58
2023-02-01T21:08:26.751Z,6.50
2023-02-01T21:11:05.943Z,6.19
2023-02-01T21:13:36.287Z,6.30
2023-02-01T21:16:04.982Z,5.90
2023-02-01T21:18:32.176Z,6.05
2023-02-01T21:21:05.173Z,6.20
2023-02-01T21:23:31.609Z,6.05
2023-02-01T21:26:01.379Z,6.47
2023-02-01T21:28:27.922Z,6.58
2023-02-01T21:30:54.419Z,5.94
2023-02-01T21:33:20.891Z,6.29
2023-02-01T21:35:50.355Z,6.28
2023-02-01T21:38:17.302Z,6.32
2023-02-01T21:40:44.252Z,6.18
2023-02-01T21:43:10.873Z,6.26
2023-02-01T21:45:39.818Z,6.30
2023-02-01T21:48:10.012Z,6.25
2023-02-01T21:50:36.501Z,6.08
2023-02-01T21:53:03.133Z,6.09
2023-02-01T21:55:29.620Z,6.24
2023-02-01T21:57:56.069Z,6.35
2023-02-01T22:00:23.925Z,6.53
2023-02-01T22:02:50.353Z,6.46
2023-02-01T22:05:17.179Z,6.49
2023-02-01T22:07:43.619Z,6.39
2023-02-01T22:10:12.632Z,6.25
2023-02-01T22:12:39.101Z,6.17
2023-02-01T22:15:06.165Z,6.71
2023-02-01T22:17:33.080Z,6.65
2023-02-01T22:19:59.637Z,6.77
2023-02-01T22:22:26.349Z,6.75
2023-02-01T22:24:54.481Z,6.51
2023-02-01T22:27:20.994Z,6.70
2023-02-01T22:29:54.652Z,6.59
2023-02-01T22:32:22.004Z,6.50
2023-02-01T22:34:48.867Z,6.29
2023-02-01T22:37:15.315Z,6.79
2023-02-01T22:39:41.871Z,6.53
2023-02-01T22:42:08.654Z,6.40
2023-02-01T22:44:35.108Z,6.36
2023-02-01T22:47:04.296Z,6.64
2023-02-01T22:49:30.730Z,6.63
2023-02-01T22:51:58.246Z,6.82
2023-02-01T22:54:26.830Z,6.63
2023-02-01T22:56:53.275Z,6.77
2023-02-01T22:59:20.860Z,6.46
2023-02-01T23:01:47.388Z,6.36
2023-02-01T23:04:15.011Z,6.41
2023-02-01T23:06:41.934Z,6.38
2023-02-01T23:09:15.826Z,6.31
2023-02-01T23:11:42.471Z,6.17
2023-02-01T23:14:09.365Z,6.36
2023-02-01T23:16:37.304Z,6.26
2023-02-01T23:19:04.047Z,6.54
2023-02-01T23:21:30.531Z,6.27
2023-02-01T23:23:58.345Z,6.67
2023-02-01T23:26:26.647Z,6.19
2023-02-01T23:28:55.230Z,6.35
2023-02-01T23:31:23.690Z,6.31
2023-02-01T23:33:54.672Z,6.84
2023-02-01T23:36:22.161Z,6.50
2023-02-01T23:38:49.086Z,6.47
2023-02-01T23:41:17.337Z,6.33
2023-02-01T23:43:59.481Z,6.27
2023-02-01T23:46:33.471Z,6.18
2023-02-01T23:49:01.280Z,6.19
2023-02-01T23:51:28.127Z,6.24
2023-02-01T23:53:55.170Z,6.28
2023-02-01T23:56:29.561Z,6.14
2023-02-01T23:58:56.937Z,5.87
